Time;durP1;ratioP1;P1;durP2;ratioP2;P2;SDS_P1;SDS_P2;PMS_P1;PMS_P2;Temp;Humidity;BMP_temperature;BMP_pressure;BME280_temperature;BME280_humidity;BME280_pressure;Samples;Min_cycle;Max_cycle;Signal;HPM_P1;HPM_P2
2023/08/11 00:01:30;;;;;;;13.57;8.57;;;;;;;;;;5036483;28;20524;-70
2023/08/11 00:03:56;;;;;;;10.77;8.50;;;;;;;;;;5036194;28;20187;-71
2023/08/11 00:06:23;;;;;;;9.73;8.83;;;;;;;;;;5036042;28;20262;-71
2023/08/11 00:08:49;;;;;;;13.60;9.23;;;;;;;;;;5036866;28;20206;-70
2023/08/11 00:11:15;;;;;;;12.07;8.90;;;;;;;;;;5036793;28;20258;-71
2023/08/11 00:13:42;;;;;;;11.13;9.50;;;;;;;;;;5018997;28;20699;-70
2023/08/11 00:16:10;;;;;;;11.37;8.37;;;;;;;;;;5036406;28;20198;-71
2023/08/11 00:18:35;;;;;;;9.77;8.77;;;;;;;;;;5035414;28;20191;-71
2023/08/11 00:21:02;;;;;;;10.27;8.50;;;;;;;;;;5035744;28;20172;-70
2023/08/11 00:23:30;;;;;;;9.20;8.30;;;;;;;;;;5035620;28;20179;-70
2023/08/11 00:25:56;;;;;;;10.13;9.10;;;;;;;;;;5035368;28;20265;-70
2023/08/11 00:28:22;;;;;;;11.60;9.50;;;;;;;;;;5017484;28;20239;-71
2023/08/11 00:30:48;;;;;;;10.90;9.20;;;;;;;;;;5035073;28;20187;-71
2023/08/11 00:33:14;;;;;;;10.93;8.77;;;;;;;;;;5035189;28;20209;-70
2023/08/11 00:35:43;;;;;;;16.27;9.07;;;;;;;;;;5017345;28;20179;-71
2023/08/11 00:38:10;;;;;;;11.83;8.57;;;;;;;;;;5035041;28;20218;-71
2023/08/11 00:40:36;;;;;;;11.13;9.50;;;;;;;;;;5035070;28;20175;-71
2023/08/11 00:43:02;;;;;;;11.60;8.63;;;;;;;;;;5035051;28;20198;-70
2023/08/11 00:45:28;;;;;;;10.77;9.67;;;;;;;;;;5034974;28;20660;-70
2023/08/11 00:47:56;;;;;;;10.60;9.47;;;;;;;;;;5034886;28;20202;-71
2023/08/11 00:50:22;;;;;;;10.20;8.77;;;;;;;;;;5034835;28;20186;-71
2023/08/11 00:52:48;;;;;;;13.27;8.77;;;;;;;;;;5034787;28;20267;-70
2023/08/11 00:55:15;;;;;;;10.90;9.13;;;;;;;;;;5034805;28;20649;-71
2023/08/11 00:57:41;;;;;;;9.87;8.80;;;;;;;;;;5034872;28;20680;-70
2023/08/11 01:00:11;;;;;;;9.63;8.63;;;;;;;;;;5034657;28;20230;-70
2023/08/11 01:02:38;;;;;;;9.87;8.60;;;;;;;;;;5035013;28;20167;-71
2023/08/11 01:05:05;;;;;;;9.20;8.27;;;;;;;;;;5016998;28;20257;-70
2023/08/11 01:07:34;;;;;;;11.37;8.13;;;;;;;;;;5034698;28;20199;-71
2023/08/11 01:10:03;;;;;;;10.50;8.77;;;;;;;;;;5016922;28;20266;-71
2023/08/11 01:12:38;;;;;;;10.90;9.00;;;;;;;;;;5016861;28;20207;-71
2023/08/11 01:15:14;;;;;;;11.85;8.90;;;;;;;;;;5015533;28;20410;-70
2023/08/11 01:17:40;;;;;;;12.68;9.13;;;;;;;;;;5033938;28;20380;-70
2023/08/11 01:20:10;;;;;;;10.27;8.37;;;;;;;;;;5034314;28;20175;-70
2023/08/11 01:22:37;;;;;;;14.95;8.20;;;;;;;;;;5015382;28;20467;-71
2023/08/11 01:25:03;;;;;;;11.20;8.70;;;;;;;;;;5033038;28;20374;-70
2023/08/11 01:27:29;;;;;;;8.93;8.02;;;;;;;;;;5032984;28;20374;-71
2023/08/11 01:29:55;;;;;;;14.90;8.33;;;;;;;;;;5034635;28;20539;-70
2023/08/11 01:32:21;;;;;;;12.37;7.83;;;;;;;;;;5016438;28;20548;-71
2023/08/11 01:34:47;;;;;;;12.80;7.67;;;;;;;;;;5034186;28;20572;-70
2023/08/11 01:37:13;;;;;;;10.17;8.03;;;;;;;;;;5016105;28;20764;-71
2023/08/11 01:39:39;;;;;;;10.80;7.83;;;;;;;;;;5034777;28;20567;-70
2023/08/11 01:42:05;;;;;;;12.23;7.30;;;;;;;;;;5016357;28;20178;-70
2023/08/11 01:44:32;;;;;;;10.77;7.93;;;;;;;;;;5034493;28;20171;-70
2023/08/11 01:46:58;;;;;;;15.77;7.23;;;;;;;;;;5033732;28;20187;-70
2023/08/11 01:49:26;;;;;;;13.53;8.00;;;;;;;;;;5016111;28;20178;-70
2023/08/11 01:51:52;;;;;;;10.50;7.93;;;;;;;;;;5033796;28;20171;-71
2023/08/11 01:54:18;;;;;;;10.43;7.77;;;;;;;;;;5033590;28;20199;-70
2023/08/11 01:56:45;;;;;;;9.70;7.70;;;;;;;;;;5033949;28;20186;-70
2023/08/11 01:59:12;;;;;;;9.77;7.80;;;;;;;;;;5033855;28;20171;-70
2023/08/11 02:01:39;;;;;;;16.23;7.73;;;;;;;;;;5015913;28;20179;-70
2023/08/11 02:04:05;;;;;;;11.27;7.37;;;;;;;;;;5015792;28;20217;-71
2023/08/11 02:06:31;;;;;;;12.37;7.90;;;;;;;;;;5033461;28;20185;-71
2023/08/11 02:08:57;;;;;;;9.10;7.17;;;;;;;;;;5033373;28;20199;-70
2023/08/11 02:11:23;;;;;;;8.17;6.93;;;;;;;;;;5033439;28;20676;-70
2023/08/11 02:13:49;;;;;;;10.83;7.37;;;;;;;;;;5033694;28;20202;-70
2023/08/11 02:16:15;;;;;;;10.70;6.60;;;;;;;;;;5033645;28;20183;-70
2023/08/11 02:18:41;;;;;;;10.40;7.40;;;;;;;;;;5033361;28;20221;-71
2023/08/11 02:21:07;;;;;;;12.27;7.30;;;;;;;;;;5033338;28;20208;-70
2023/08/11 02:23:34;;;;;;;9.10;6.63;;;;;;;;;;5033652;28;20237;-70
2023/08/11 02:26:00;;;;;;;10.03;6.67;;;;;;;;;;5015506;28;20274;-70
2023/08/11 02:28:26;;;;;;;11.57;7.10;;;;;;;;;;5033384;28;20195;-70
2023/08/11 02:30:53;;;;;;;11.17;6.83;;;;;;;;;;5033718;28;20601;-70
2023/08/11 02:33:20;;;;;;;12.10;7.03;;;;;;;;;;5015296;28;20238;-70
2023/08/11 02:35:46;;;;;;;7.60;6.80;;;;;;;;;;5015450;28;20565;-71
2023/08/11 02:38:16;;;;;;;11.90;7.07;;;;;;;;;;5015274;28;20305;-70
2023/08/11 02:40:42;;;;;;;8.00;5.97;;;;;;;;;;5015289;28;20266;-70
2023/08/11 02:43:07;;;;;;;17.67;7.17;;;;;;;;;;5033198;28;20207;-70
2023/08/11 02:45:35;;;;;;;10.43;6.47;;;;;;;;;;5033050;28;20680;-70
2023/08/11 02:48:01;;;;;;;10.80;7.20;;;;;;;;;;5033077;28;20187;-70
2023/08/11 02:50:27;;;;;;;9.47;7.17;;;;;;;;;;5033301;28;20673;-70
2023/08/11 02:52:53;;;;;;;12.87;6.97;;;;;;;;;;5034256;28;20175;-70
2023/08/11 02:55:19;;;;;;;8.70;7.33;;;;;;;;;;5019341;28;20182;-70
2023/08/11 02:57:46;;;;;;;12.37;7.20;;;;;;;;;;5037204;28;20282;-70
2023/08/11 03:00:13;;;;;;;13.93;7.03;;;;;;;;;;5019267;28;20570;-71
2023/08/11 03:02:39;;;;;;;9.67;6.90;;;;;;;;;;5036891;28;20186;-70
2023/08/11 03:05:07;;;;;;;12.00;7.50;;;;;;;;;;5036801;28;20233;-70
2023/08/11 03:07:35;;;;;;;12.40;7.17;;;;;;;;;;5036733;28;20221;-70
2023/08/11 03:10:01;;;;;;;11.67;7.27;;;;;;;;;;5037033;28;20183;-70
2023/08/11 03:12:28;;;;;;;11.10;7.90;;;;;;;;;;5036826;28;20559;-70
2023/08/11 03:14:54;;;;;;;9.90;7.20;;;;;;;;;;5018908;28;20198;-70
2023/08/11 03:17:20;;;;;;;12.07;6.57;;;;;;;;;;5036611;28;20203;-70
2023/08/11 03:19:46;;;;;;;10.30;7.30;;;;;;;;;;5036846;28;20175;-70
2023/08/11 03:22:13;;;;;;;11.13;6.73;;;;;;;;;;5036594;28;20212;-70
2023/08/11 03:24:39;;;;;;;11.07;7.43;;;;;;;;;;5018701;28;20180;-70
2023/08/11 03:27:06;;;;;;;16.43;7.20;;;;;;;;;;5036887;28;20784;-70
2023/08/11 03:29:32;;;;;;;13.80;7.53;;;;;;;;;;5037057;28;20645;-70
2023/08/11 03:31:58;;;;;;;13.47;7.43;;;;;;;;;;5036355;28;20179;-70
2023/08/11 03:34:24;;;;;;;11.47;6.97;;;;;;;;;;5018637;28;20198;-70
2023/08/11 03:36:50;;;;;;;10.90;7.57;;;;;;;;;;5036194;28;20261;-70
2023/08/11 03:39:16;;;;;;;10.90;7.20;;;;;;;;;;5018546;28;20187;-70
2023/08/11 03:41:42;;;;;;;11.47;7.03;;;;;;;;;;5036323;28;20257;-70
2023/08/11 03:44:08;;;;;;;10.43;6.93;;;;;;;;;;5036271;28;20237;-70
2023/08/11 03:46:35;;;;;;;15.87;7.93;;;;;;;;;;5018424;28;20179;-70
2023/08/11 03:49:01;;;;;;;9.87;7.70;;;;;;;;;;5063899;22;20298;-65
2023/08/11 03:51:27;;;;;;;11.73;7.27;;;;;;;;;;5038459;28;20155;-65
2023/08/11 03:53:53;;;;;;;14.83;7.17;;;;;;;;;;5038147;28;20217;-64
2023/08/11 03:56:19;;;;;;;18.00;8.20;;;;;;;;;;5038140;28;20174;-63
2023/08/11 03:58:46;;;;;;;13.77;8.07;;;;;;;;;;5037970;28;20171;-63
2023/08/11 04:01:12;;;;;;;11.83;7.60;;;;;;;;;;5056054;28;20208;-63
2023/08/11 04:03:38;;;;;;;14.90;7.90;;;;;;;;;;5056078;28;20177;-63
2023/08/11 04:06:04;;;;;;;13.20;7.60;;;;;;;;;;5055388;28;20272;-64
2023/08/11 04:08:30;;;;;;;12.87;8.77;;;;;;;;;;5056083;28;20655;-63
2023/08/11 04:10:56;;;;;;;10.23;7.77;;;;;;;;;;5055806;28;20261;-64
2023/08/11 04:13:22;;;;;;;10.00;7.40;;;;;;;;;;5055834;28;20202;-63
2023/08/11 04:15:49;;;;;;;11.93;7.83;;;;;;;;;;5037941;28;20183;-64
2023/08/11 04:18:14;;;;;;;13.23;7.77;;;;;;;;;;5055949;28;20175;-65
2023/08/11 04:20:40;;;;;;;12.67;8.20;;;;;;;;;;5055510;28;20199;-64
2023/08/11 04:23:06;;;;;;;18.27;8.63;;;;;;;;;;5055899;28;20194;-64
2023/08/11 04:25:32;;;;;;;12.63;8.00;;;;;;;;;;5055608;28;20201;-64
2023/08/11 04:28:00;;;;;;;17.53;8.07;;;;;;;;;;5057380;28;20645;-64
2023/08/11 04:30:26;;;;;;;11.10;8.33;;;;;;;;;;5057133;28;20194;-64
2023/08/11 04:32:53;;;;;;;13.10;7.60;;;;;;;;;;5037609;28;20270;-64
2023/08/11 04:35:19;;;;;;;14.53;7.90;;;;;;;;;;5055467;28;20552;-65
2023/08/11 04:37:45;;;;;;;13.93;7.73;;;;;;;;;;5037442;28;20278;-64
2023/08/11 04:40:13;;;;;;;13.07;7.20;;;;;;;;;;5055220;28;20202;-65
2023/08/11 04:42:39;;;;;;;12.23;7.73;;;;;;;;;;5055165;28;20179;-64
2023/08/11 04:45:05;;;;;;;7.83;7.03;;;;;;;;;;5038025;28;20189;-64
2023/08/11 04:47:34;;;;;;;13.43;7.32;;;;;;;;;;5054993;28;20883;-64
2023/08/11 04:50:00;;;;;;;12.23;8.05;;;;;;;;;;5054541;28;20917;-64
2023/08/11 04:52:27;;;;;;;13.15;7.65;;;;;;;;;;5037474;28;20504;-64
2023/08/11 04:54:53;;;;;;;10.33;6.67;;;;;;;;;;5057019;28;20201;-65
2023/08/11 04:57:19;;;;;;;9.17;6.77;;;;;;;;;;5056223;28;20205;-64
2023/08/11 04:59:45;;;;;;;11.60;6.60;;;;;;;;;;5055950;28;20676;-64
2023/08/11 05:02:11;;;;;;;11.03;6.70;;;;;;;;;;5037451;28;20175;-65
2023/08/11 05:04:38;;;;;;;11.63;6.40;;;;;;;;;;5055169;28;20186;-64
2023/08/11 05:07:06;;;;;;;7.83;5.97;;;;;;;;;;5055298;28;20182;-64
2023/08/11 05:09:35;;;;;;;11.37;7.00;;;;;;;;;;5055313;28;20281;-64
2023/08/11 05:12:01;;;;;;;11.53;6.27;;;;;;;;;;5037196;28;20186;-64
2023/08/11 05:14:27;;;;;;;8.90;5.60;;;;;;;;;;5055163;28;20205;-65
2023/08/11 05:16:53;;;;;;;7.03;5.53;;;;;;;;;;5035877;28;20573;-64
2023/08/11 05:19:19;;;;;;;6.97;5.50;;;;;;;;;;5055009;28;20201;-64
2023/08/11 05:21:45;;;;;;;9.03;4.90;;;;;;;;;;5037147;28;20532;-64
2023/08/11 05:24:11;;;;;;;9.10;5.40;;;;;;;;;;5037069;28;20208;-65
2023/08/11 05:26:38;;;;;;;9.13;5.47;;;;;;;;;;5055387;28;20179;-64
2023/08/11 05:29:04;;;;;;;4.93;4.43;;;;;;;;;;5037467;28;20347;-64
2023/08/11 05:31:30;;;;;;;8.80;4.77;;;;;;;;;;5055198;28;20214;-64
2023/08/11 05:33:56;;;;;;;6.53;4.97;;;;;;;;;;5037479;28;20206;-65
2023/08/11 05:36:22;;;;;;;10.27;5.23;;;;;;;;;;5037483;28;20175;-64
2023/08/11 05:38:48;;;;;;;8.40;4.77;;;;;;;;;;5037625;28;20584;-64
2023/08/11 05:41:14;;;;;;;8.30;4.07;;;;;;;;;;5055448;28;20175;-63
2023/08/11 05:43:40;;;;;;;11.50;4.97;;;;;;;;;;5055248;28;20221;-64
2023/08/11 05:46:07;;;;;;;8.13;4.67;;;;;;;;;;5055197;28;20762;-64
2023/08/11 05:48:33;;;;;;;9.97;4.80;;;;;;;;;;5055215;28;20170;-63
2023/08/11 05:50:59;;;;;;;12.07;4.50;;;;;;;;;;5055783;28;20199;-64
2023/08/11 05:53:25;;;;;;;9.57;4.57;;;;;;;;;;5055960;28;20202;-64
2023/08/11 05:55:51;;;;;;;8.23;4.67;;;;;;;;;;5037638;28;20728;-66
2023/08/11 05:58:17;;;;;;;6.83;4.33;;;;;;;;;;5055182;28;20580;-65
2023/08/11 06:00:43;;;;;;;7.90;4.13;;;;;;;;;;5054969;28;20194;-66
2023/08/11 06:03:09;;;;;;;6.43;4.10;;;;;;;;;;5056077;28;20189;-65
2023/08/11 06:05:35;;;;;;;8.73;4.67;;;;;;;;;;5055424;28;20178;-64
2023/08/11 06:08:01;;;;;;;9.50;4.40;;;;;;;;;;5055266;28;20540;-64
2023/08/11 06:10:27;;;;;;;10.80;4.50;;;;;;;;;;5054318;28;20241;-64
2023/08/11 06:12:55;;;;;;;7.93;4.43;;;;;;;;;;5036497;28;20724;-65
2023/08/11 06:15:21;;;;;;;4.80;3.83;;;;;;;;;;5036133;28;20214;-64
2023/08/11 06:17:49;;;;;;;5.80;4.23;;;;;;;;;;5054329;28;20625;-66
2023/08/11 06:20:17;;;;;;;7.43;4.23;;;;;;;;;;5054088;28;20715;-65
2023/08/11 06:22:43;;;;;;;7.73;4.33;;;;;;;;;;5054187;28;20170;-65
2023/08/11 06:25:09;;;;;;;7.93;4.17;;;;;;;;;;5054645;28;20182;-64
2023/08/11 06:27:35;;;;;;;8.93;4.40;;;;;;;;;;5053317;28;20188;-65
2023/08/11 06:30:04;;;;;;;9.10;3.97;;;;;;;;;;5036011;28;20299;-65
2023/08/11 06:32:30;;;;;;;6.53;4.10;;;;;;;;;;5054038;28;20189;-65
2023/08/11 06:34:56;;;;;;;6.97;4.07;;;;;;;;;;5035911;28;20588;-64
2023/08/11 06:37:22;;;;;;;4.93;4.33;;;;;;;;;;5036236;28;20170;-65
2023/08/11 06:39:48;;;;;;;7.27;4.07;;;;;;;;;;5037028;28;20205;-65
2023/08/11 06:42:14;;;;;;;6.57;3.80;;;;;;;;;;5038126;28;20178;-64
2023/08/11 06:44:40;;;;;;;8.73;4.37;;;;;;;;;;5055649;28;20651;-64
2023/08/11 06:47:05;;;;;;;9.00;4.17;;;;;;;;;;5036277;28;20648;-65
2023/08/11 06:49:31;;;;;;;9.37;4.97;;;;;;;;;;5053524;28;20629;-65
2023/08/11 06:51:57;;;;;;;6.40;4.43;;;;;;;;;;5053838;28;20193;-64
2023/08/11 06:54:23;;;;;;;5.40;3.83;;;;;;;;;;5053240;28;20237;-65
2023/08/11 06:56:49;;;;;;;7.53;4.17;;;;;;;;;;5035771;28;20182;-65
2023/08/11 06:59:17;;;;;;;7.73;4.77;;;;;;;;;;5035827;28;20202;-64
2023/08/11 07:01:43;;;;;;;8.73;5.50;;;;;;;;;;5053564;28;20170;-64
2023/08/11 07:04:09;;;;;;;11.67;5.63;;;;;;;;;;5053390;28;20644;-66
2023/08/11 07:06:35;;;;;;;11.97;5.83;;;;;;;;;;5054009;28;20257;-66
2023/08/11 07:09:01;;;;;;;11.27;6.60;;;;;;;;;;5053117;28;20206;-65
2023/08/11 07:11:27;;;;;;;11.10;6.70;;;;;;;;;;5035730;28;20204;-65
2023/08/11 07:13:53;;;;;;;11.50;6.00;;;;;;;;;;5035276;28;20233;-65
2023/08/11 07:16:19;;;;;;;12.23;6.17;;;;;;;;;;5053336;28;20174;-65
2023/08/11 07:18:45;;;;;;;12.37;6.57;;;;;;;;;;5035290;28;20175;-65
2023/08/11 07:21:10;;;;;;;10.83;7.67;;;;;;;;;;5035178;28;20175;-65
2023/08/11 07:23:36;;;;;;;13.67;8.90;;;;;;;;;;5052956;28;20182;-64
2023/08/11 07:26:02;;;;;;;19.73;9.30;;;;;;;;;;5053055;28;20218;-64
2023/08/11 07:28:28;;;;;;;16.67;7.10;;;;;;;;;;5053001;28;20182;-65
2023/08/11 07:30:54;;;;;;;12.07;6.57;;;;;;;;;;5053361;28;20179;-64
2023/08/11 07:33:20;;;;;;;14.40;6.90;;;;;;;;;;5052770;28;20203;-65
2023/08/11 07:35:46;;;;;;;11.40;7.20;;;;;;;;;;5052639;28;20175;-64
2023/08/11 07:38:12;;;;;;;11.70;6.97;;;;;;;;;;5052919;28;20175;-64
2023/08/11 07:40:38;;;;;;;14.13;7.33;;;;;;;;;;5037643;28;20199;-66
2023/08/11 07:43:04;;;;;;;12.90;7.57;;;;;;;;;;5056755;28;20174;-65
2023/08/11 07:45:30;;;;;;;12.50;7.07;;;;;;;;;;5056755;28;20606;-65
2023/08/11 07:47:56;;;;;;;14.10;7.40;;;;;;;;;;5057135;28;20747;-64
2023/08/11 07:50:22;;;;;;;15.10;6.87;;;;;;;;;;5038516;28;20233;-65
2023/08/11 07:52:48;;;;;;;14.03;6.07;;;;;;;;;;5038878;28;20191;-65
2023/08/11 07:55:14;;;;;;;16.03;7.40;;;;;;;;;;5038566;28;20214;-65
2023/08/11 07:57:41;;;;;;;11.50;5.97;;;;;;;;;;5056389;28;20174;-65
2023/08/11 08:00:13;;;;;;;13.17;6.30;;;;;;;;;;5057012;28;20191;-65
2023/08/11 08:02:39;;;;;;;15.40;5.93;;;;;;;;;;5056490;28;20193;-66
2023/08/11 08:05:05;;;;;;;8.13;5.23;;;;;;;;;;5038345;28;20179;-65
2023/08/11 08:07:31;;;;;;;9.60;5.97;;;;;;;;;;5038203;28;20633;-66
2023/08/11 08:09:57;;;;;;;12.10;6.47;;;;;;;;;;5056742;28;20278;-65
2023/08/11 08:12:23;;;;;;;10.93;5.97;;;;;;;;;;5055990;28;20209;-66
2023/08/11 08:14:49;;;;;;;12.40;6.10;;;;;;;;;;5056161;28;20241;-66
2023/08/11 08:17:15;;;;;;;13.53;6.40;;;;;;;;;;5056371;28;20229;-65
2023/08/11 08:19:41;;;;;;;18.03;7.10;;;;;;;;;;5038597;28;20248;-66
2023/08/11 08:22:07;;;;;;;12.60;6.10;;;;;;;;;;5038278;28;20269;-65
2023/08/11 08:24:33;;;;;;;13.07;5.77;;;;;;;;;;5039068;28;20178;-65
2023/08/11 08:26:59;;;;;;;12.33;5.50;;;;;;;;;;5040369;28;20182;-65
2023/08/11 08:29:25;;;;;;;9.90;5.00;;;;;;;;;;5040127;28;20206;-65
2023/08/11 08:31:51;;;;;;;10.80;5.73;;;;;;;;;;5057657;28;20175;-65
2023/08/11 08:34:17;;;;;;;10.50;5.40;;;;;;;;;;5056148;28;20194;-65
2023/08/11 08:36:43;;;;;;;10.37;4.53;;;;;;;;;;5055770;28;20179;-66
2023/08/11 08:39:09;;;;;;;8.87;4.77;;;;;;;;;;5055712;28;20645;-65
2023/08/11 08:41:38;;;;;;;8.70;4.80;;;;;;;;;;5037854;28;20551;-65
2023/08/11 08:44:04;;;;;;;6.43;4.43;;;;;;;;;;5055726;28;20265;-66
2023/08/11 08:46:31;;;;;;;6.47;4.33;;;;;;;;;;5055958;28;20522;-66
2023/08/11 08:49:04;;;;;;;8.03;4.57;;;;;;;;;;5037098;28;20304;-66
2023/08/11 08:51:30;;;;;;;9.37;4.77;;;;;;;;;;5038011;28;20179;-65
2023/08/11 08:53:57;;;;;;;7.80;4.33;;;;;;;;;;5056199;28;20198;-65
2023/08/11 08:56:23;;;;;;;5.33;4.33;;;;;;;;;;5056684;28;20178;-66
2023/08/11 08:58:49;;;;;;;6.80;4.43;;;;;;;;;;5037135;28;20267;-66
2023/08/11 09:01:15;;;;;;;7.00;4.50;;;;;;;;;;5055220;28;20526;-65
2023/08/11 09:03:43;;;;;;;8.20;4.40;;;;;;;;;;5055048;28;20183;-66
2023/08/11 09:06:10;;;;;;;12.50;4.40;;;;;;;;;;5056084;28;20539;-66
2023/08/11 09:08:40;;;;;;;8.20;4.97;;;;;;;;;;5036898;28;20268;-65
2023/08/11 09:11:06;;;;;;;10.40;4.80;;;;;;;;;;5037212;28;20178;-66
2023/08/11 09:13:33;;;;;;;12.73;4.90;;;;;;;;;;5055214;28;20219;-65
2023/08/11 09:15:59;;;;;;;10.90;4.17;;;;;;;;;;5054825;28;20181;-66
2023/08/11 09:18:25;;;;;;;13.57;4.93;;;;;;;;;;5036990;28;20179;-65
2023/08/11 09:20:51;;;;;;;7.47;4.30;;;;;;;;;;5055100;28;20559;-66
2023/08/11 09:23:17;;;;;;;11.97;4.70;;;;;;;;;;5036991;28;20182;-66
2023/08/11 09:25:43;;;;;;;10.17;5.07;;;;;;;;;;5056531;28;20213;-67
2023/08/11 09:28:09;;;;;;;8.80;4.83;;;;;;;;;;5036941;28;20224;-66
2023/08/11 09:30:35;;;;;;;19.37;8.03;;;;;;;;;;5055372;28;20264;-66
2023/08/11 09:33:03;;;;;;;26.60;7.23;;;;;;;;;;5036679;28;20558;-66
2023/08/11 09:35:29;;;;;;;10.57;4.83;;;;;;;;;;5054477;28;20205;-66
2023/08/11 09:37:55;;;;;;;7.53;4.40;;;;;;;;;;5037052;28;20189;-65
2023/08/11 09:40:24;;;;;;;10.07;4.70;;;;;;;;;;5054722;28;20328;-67
2023/08/11 09:42:54;;;;;;;6.37;4.30;;;;;;;;;;5054273;28;20194;-64
2023/08/11 09:45:21;;;;;;;7.97;4.47;;;;;;;;;;5054394;28;20202;-66
2023/08/11 09:47:47;;;;;;;10.63;4.63;;;;;;;;;;5036081;28;20186;-66
2023/08/11 09:50:14;;;;;;;6.60;4.63;;;;;;;;;;5054078;28;20267;-66
2023/08/11 09:52:41;;;;;;;11.90;4.77;;;;;;;;;;5054053;28;20597;-66
2023/08/11 09:55:08;;;;;;;5.63;4.37;;;;;;;;;;5036186;28;20206;-67
2023/08/11 09:57:35;;;;;;;9.27;4.63;;;;;;;;;;5053768;28;20216;-64
2023/08/11 10:00:02;;;;;;;7.23;4.40;;;;;;;;;;5054006;28;20256;-64
2023/08/11 10:02:30;;;;;;;6.60;4.13;;;;;;;;;;5053685;28;20179;-65
2023/08/11 10:04:57;;;;;;;7.33;3.87;;;;;;;;;;5054580;28;20604;-64
2023/08/11 10:07:24;;;;;;;5.20;3.20;;;;;;;;;;5053681;28;20554;-67
2023/08/11 10:09:50;;;;;;;4.80;3.80;;;;;;;;;;5053777;28;20672;-66
2023/08/11 10:12:17;;;;;;;7.77;3.57;;;;;;;;;;5053857;28;20236;-65
2023/08/11 10:14:43;;;;;;;4.73;3.03;;;;;;;;;;5053809;28;20277;-65
2023/08/11 10:17:10;;;;;;;7.77;3.80;;;;;;;;;;5054009;28;20182;-65
2023/08/11 10:19:37;;;;;;;6.57;2.83;;;;;;;;;;5035714;28;20198;-65
2023/08/11 10:22:03;;;;;;;16.00;4.47;;;;;;;;;;5034364;28;20393;-65
2023/08/11 10:24:29;;;;;;;7.83;3.73;;;;;;;;;;5034539;28;20400;-65
2023/08/11 10:26:55;;;;;;;4.73;3.30;;;;;;;;;;5052339;22;20498;-70
2023/08/11 10:29:21;;;;;;;4.05;3.58;;;;;;;;;;5014820;28;20969;-69
2023/08/11 10:31:54;;;;;;;5.60;3.47;;;;;;;;;;5032360;28;20402;-69
2023/08/11 10:34:24;;;;;;;4.10;3.70;;;;;;;;;;5033012;28;20203;-69
2023/08/11 10:36:51;;;;;;;3.93;3.53;;;;;;;;;;5032836;28;20210;-69
2023/08/11 10:39:20;;;;;;;5.40;4.00;;;;;;;;;;5016140;28;20179;-69
2023/08/11 10:41:46;;;;;;;3.80;3.40;;;;;;;;;;5033113;28;20207;-69
2023/08/11 10:44:13;;;;;;;6.00;3.78;;;;;;;;;;5014143;28;20391;-69
2023/08/11 10:46:40;;;;;;;5.10;3.55;;;;;;;;;;5014229;28;20444;-70
2023/08/11 10:49:07;;;;;;;4.50;3.50;;;;;;;;;;5032947;28;20171;-70
2023/08/11 10:51:34;;;;;;;4.45;3.60;;;;;;;;;;5032657;28;20429;-70
2023/08/11 10:54:02;;;;;;;5.83;3.50;;;;;;;;;;5015567;28;20560;-70
2023/08/11 10:56:34;;;;;;;4.00;3.50;;;;;;;;;;5032864;28;20195;-70
2023/08/11 10:59:08;;;;;;;6.90;3.87;;;;;;;;;;5032865;28;20275;-70
2023/08/11 11:01:38;;;;;;;5.83;3.87;;;;;;;;;;5015099;28;20180;-70
2023/08/11 11:04:06;;;;;;;4.77;3.43;;;;;;;;;;5015050;28;20187;-69
2023/08/11 11:06:32;;;;;;;3.93;3.50;;;;;;;;;;5033041;28;20234;-70
2023/08/11 11:08:58;;;;;;;7.37;4.00;;;;;;;;;;5013823;28;20395;-70
2023/08/11 11:11:24;;;;;;;5.93;3.93;;;;;;;;;;5013722;28;20441;-70
2023/08/11 11:13:50;;;;;;;;;;;;;;;;;;5033533;28;20037;-70
2023/08/11 11:16:16;;;;;;;7.72;3.88;;;;;;;;;;5035417;28;20866;-70
2023/08/11 11:18:42;;;;;;;5.33;3.73;;;;;;;;;;5036647;28;20216;-71
2023/08/11 11:21:09;;;;;;;7.50;3.77;;;;;;;;;;5036461;28;20179;-70
2023/08/11 11:23:35;;;;;;;6.70;4.03;;;;;;;;;;5036634;28;20175;-70
2023/08/11 11:26:01;;;;;;;8.40;4.87;;;;;;;;;;5018217;28;20187;-71
2023/08/11 11:28:27;;;;;;;7.37;4.17;;;;;;;;;;5036214;28;20613;-69
2023/08/11 11:30:54;;;;;;;5.70;4.10;;;;;;;;;;5036321;28;20175;-68
2023/08/11 11:33:20;;;;;;;7.13;4.50;;;;;;;;;;5019234;28;20210;-69
2023/08/11 11:35:46;;;;;;;10.80;4.50;;;;;;;;;;5036454;28;20183;-69
2023/08/11 11:38:12;;;;;;;4.83;4.30;;;;;;;;;;5018424;28;20537;-68
2023/08/11 11:40:38;;;;;;;10.55;3.90;;;;;;;;;;5036419;28;20175;-69
2023/08/11 11:43:04;;;;;;;7.97;4.20;;;;;;;;;;5017060;28;20414;-69
2023/08/11 11:45:30;;;;;;;5.67;4.13;;;;;;;;;;5036339;28;20180;-70
2023/08/11 11:47:56;;;;;;;6.23;3.73;;;;;;;;;;5036044;28;20326;-70
2023/08/11 11:50:22;;;;;;;6.68;4.30;;;;;;;;;;5034656;28;20379;-69
2023/08/11 11:52:48;;;;;;;8.43;3.67;;;;;;;;;;5018080;28;20259;-69
2023/08/11 11:55:16;;;;;;;;;;;;;;;;;;5018517;28;20483;-69
2023/08/11 11:57:42;;;;;;;;;;;;;;;;;;5018436;28;19912;-69
2023/08/11 12:00:16;;;;;;;;;;;;;;;;;;5018291;28;19913;-68
2023/08/11 12:02:42;;;;;;;6.22;3.90;;;;;;;;;;5034405;28;20387;-69
2023/08/11 12:05:08;;;;;;;4.37;3.70;;;;;;;;;;5035925;28;20179;-68
2023/08/11 12:07:36;;;;;;;5.97;3.57;;;;;;;;;;5035390;28;20222;-67
2023/08/11 12:10:02;;;;;;;4.30;3.90;;;;;;;;;;5035697;28;20178;-68
2023/08/11 12:12:29;;;;;;;7.88;3.47;;;;;;;;;;5035459;28;20258;-68
2023/08/11 12:15:05;;;;;;;3.50;3.20;;;;;;;;;;5035541;28;20195;-69
2023/08/11 12:17:31;;;;;;;;;;;;;;;;;;5018021;28;20035;-69
2023/08/11 12:19:57;;;;;;;;;;;;;;;;;;5036014;28;19937;-68
2023/08/11 12:22:26;;;;;;;;;;;;;;;;;;5018167;28;19912;-68
2023/08/11 12:24:52;;;;;;;;;;;;;;;;;;5018497;28;19912;-69
2023/08/11 12:27:18;;;;;;;;;;;;;;;;;;5017685;28;20295;-68
2023/08/11 12:29:44;;;;;;;;;;;;;;;;;;5018373;28;19970;-68
2023/08/11 12:32:10;;;;;;;;;;;;;;;;;;5035966;28;19909;-68
2023/08/11 12:34:36;;;;;;;;;;;;;;;;;;5035527;28;19909;-69
2023/08/11 12:37:02;;;;;;;;;;;;;;;;;;5018179;28;20379;-69
2023/08/11 12:39:29;;;;;;;;;;;;;;;;;;5018164;28;19905;-69
2023/08/11 12:41:54;;;;;;;;;;;;;;;;;;5035626;28;20329;-69
2023/08/11 12:44:20;;;;;;;;;;;;;;;;;;5017762;28;19905;-69
2023/08/11 12:46:46;;;;;;;;;;;;;;;;;;5035425;28;19987;-69
2023/08/11 12:49:12;;;;;;;;;;;;;;;;;;5017382;28;19905;-69
2023/08/11 12:51:38;;;;;;;;;;;;;;;;;;5035260;28;19911;-69
2023/08/11 12:54:04;;;;;;;;;;;;;;;;;;5035174;28;19915;-69
2023/08/11 12:56:30;;;;;;;;;;;;;;;;;;5017515;28;19909;-69
2023/08/11 12:58:56;;;;;;;;;;;;;;;;;;5017469;28;20011;-69
2023/08/11 13:01:22;;;;;;;;;;;;;;;;;;5017258;28;20312;-69
2023/08/11 13:03:51;;;;;;;;;;;;;;;;;;5035246;28;19908;-69
2023/08/11 13:06:16;;;;;;;;;;;;;;;;;;5017123;28;19905;-69
2023/08/11 13:08:42;;;;;;;;;;;;;;;;;;5017056;28;20351;-69
2023/08/11 13:11:08;;;;;;;;;;;;;;;;;;5017097;28;19913;-69
2023/08/11 13:13:34;;;;;;;;;;;;;;;;;;5017036;28;19988;-69
2023/08/11 13:16:00;;;;;;;;;;;;;;;;;;5034947;28;20291;-69
2023/08/11 13:18:26;;;;;;;;;;;;;;;;;;5034704;28;20002;-69
2023/08/11 13:20:52;;;;;;;;;;;;;;;;;;5016940;28;20349;-69
2023/08/11 13:23:17;;;;;;;;;;;;;;;;;;5034869;28;19912;-69
2023/08/11 13:25:43;;;;;;;;;;;;;;;;;;5037406;28;19916;-69
2023/08/11 13:28:09;;;;;;;;;;;;;;;;;;5043496;28;20011;-69
2023/08/11 13:30:35;;;;;;;;;;;;;;;;;;5023003;28;19905;-69
2023/08/11 13:33:02;;;;;;;;;;;;;;;;;;5019391;28;19951;-70
2023/08/11 13:35:28;;;;;;;3.70;3.30;;;;;;;;;;5033992;28;20185;-69
2023/08/11 13:37:54;;;;;;;5.57;3.67;;;;;;;;;;5033614;28;20206;-69
2023/08/11 13:40:21;;;;;;;3.50;3.20;;;;;;;;;;5034494;28;20258;-69
2023/08/11 13:42:47;;;;;;;3.65;3.30;;;;;;;;;;5033927;28;20167;-69
2023/08/11 13:45:13;;;;;;;9.73;3.58;;;;;;;;;;5033905;28;20186;-70
2023/08/11 13:47:39;;;;;;;5.45;3.70;;;;;;;;;;5015975;28;20207;-70
2023/08/11 13:50:06;;;;;;;3.75;3.38;;;;;;;;;;5033619;28;20186;-69
2023/08/11 13:52:31;;;;;;;8.13;3.67;;;;;;;;;;5033638;28;20262;-69
2023/08/11 13:54:57;;;;;;;6.45;3.83;;;;;;;;;;5033843;28;20293;-69
2023/08/11 13:57:24;;;;;;;6.40;3.90;;;;;;;;;;5015670;28;20195;-69
2023/08/11 13:59:49;;;;;;;4.53;3.55;;;;;;;;;;5016633;28;20282;-69
2023/08/11 14:02:15;;;;;;;7.25;4.07;;;;;;;;;;5032769;28;20909;-69
2023/08/11 14:04:41;;;;;;;5.32;3.75;;;;;;;;;;5032428;28;20383;-70
2023/08/11 14:07:08;;;;;;;7.27;3.67;;;;;;;;;;5032461;28;20387;-70
2023/08/11 14:09:34;;;;;;;7.28;3.85;;;;;;;;;;5032469;28;20381;-70
2023/08/11 14:12:00;;;;;;;7.80;4.28;;;;;;;;;;5032651;28;20441;-70
2023/08/11 14:14:25;;;;;;;6.75;4.45;;;;;;;;;;5015216;28;20407;-69
2023/08/11 14:16:51;;;;;;;5.30;4.07;;;;;;;;;;5032888;28;20372;-69
2023/08/11 14:19:17;;;;;;;5.85;5.03;;;;;;;;;;5014797;28;20462;-69
2023/08/11 14:21:43;;;;;;;5.85;3.65;;;;;;;;;;5014889;28;20372;-69
2023/08/11 14:24:09;;;;;;;4.25;3.85;;;;;;;;;;5014391;28;20395;-68
2023/08/11 14:26:35;;;;;;;6.75;4.10;;;;;;;;;;5016026;28;20383;-69
2023/08/11 14:29:01;;;;;;;5.40;3.92;;;;;;;;;;5032236;28;20382;-69
2023/08/11 14:31:27;;;;;;;5.72;3.60;;;;;;;;;;5032377;28;20411;-69
2023/08/11 14:33:53;;;;;;;6.20;3.65;;;;;;;;;;5015654;28;20688;-69
2023/08/11 14:36:19;;;;;;;6.60;3.70;;;;;;;;;;5033336;28;20274;-69
2023/08/11 14:38:45;;;;;;;8.32;3.83;;;;;;;;;;5033352;28;20171;-70
2023/08/11 14:41:11;;;;;;;5.30;3.90;;;;;;;;;;5033535;28;20177;-71
2023/08/11 14:43:37;;;;;;;8.77;4.07;;;;;;;;;;5034859;28;20529;-69